Time;durP1;ratioP1;P1;durP2;ratioP2;P2;SDS_P1;SDS_P2;PMS_P1;PMS_P2;Temp;Humidity;BMP_temperature;BMP_pressure;BME280_temperature;BME280_humidity;BME280_pressure;Samples;Min_cycle;Max_cycle;Signal;HPM_P1;HPM_P2
2022/07/17 00:00:34;;;;;;;13.40;12.10;;;;;;;11.11;91.28;98567.82;107145;1271;22518;-91
2022/07/17 00:03:04;;;;;;;14.20;12.80;;;;;;;11.10;90.84;98567.20;107931;1270;22559;-89
2022/07/17 00:05:32;;;;;;;14.40;12.90;;;;;;;11.11;90.48;98567.06;108464;1271;23030;-93
2022/07/17 00:08:01;;;;;;;15.80;13.40;;;;;;;11.13;91.07;98568.12;108037;1271;23544;-92
2022/07/17 00:10:29;;;;;;;15.90;13.90;;;;;;;11.10;90.65;98568.05;107392;1271;24258;-91
2022/07/17 00:12:57;;;;;;;16.10;13.80;;;;;;;11.07;90.37;98573.14;107174;1271;25344;-91
2022/07/17 00:15:26;;;;;;;15.80;14.20;;;;;;;11.05;90.71;98575.75;107414;1271;22544;-92
2022/07/17 00:17:55;;;;;;;15.30;13.10;;;;;;;11.01;91.22;98573.10;107583;1271;22541;-91
2022/07/17 00:20:25;;;;;;;14.00;12.50;;;;;;;10.97;90.94;98571.36;107771;1271;22554;-93
2022/07/17 00:22:57;;;;;;;16.20;12.80;;;;;;;10.95;90.57;98572.36;107793;1271;22521;-90
2022/07/17 00:25:27;;;;;;;14.20;12.80;;;;;;;10.94;90.77;98573.17;107781;1271;22532;-93
2022/07/17 00:27:55;;;;;;;13.10;11.70;;;;;;;10.91;90.65;98579.30;107901;1271;22683;-92
2022/07/17 00:30:23;;;;;;;13.40;12.10;;;;;;;10.87;90.54;98580.90;107692;1271;22543;-92
2022/07/17 00:32:52;;;;;;;14.00;12.70;;;;;;;10.86;90.27;98583.77;107411;1271;23976;-94
2022/07/17 00:35:20;;;;;;;14.70;13.20;;;;;;;10.85;90.25;98586.79;107504;1271;22576;-93
2022/07/17 00:37:49;;;;;;;14.60;13.00;;;;;;;10.80;90.20;98589.90;107658;1271;24433;-88
2022/07/17 00:40:20;;;;;;;14.30;12.90;;;;;;;10.73;90.45;98588.02;107598;1271;24184;-92
2022/07/17 00:42:49;;;;;;;14.00;12.50;;;;;;;10.69;90.00;98592.09;107553;1270;25906;-90
2022/07/17 00:45:17;;;;;;;15.20;13.80;;;;;;;10.67;90.39;98592.39;107121;1271;22627;-93
2022/07/17 00:47:52;;;;;;;15.20;13.70;;;;;;;10.64;90.28;98591.44;107355;1271;22544;-93
2022/07/17 00:50:24;;;;;;;16.90;14.90;;;;;;;10.59;90.29;98594.39;107181;1271;22859;-92
2022/07/17 00:52:52;;;;;;;16.30;14.60;;;;;;;10.47;90.18;98589.36;107306;1271;22579;-92
2022/07/17 00:55:22;;;;;;;14.90;13.50;;;;;;;10.40;90.33;98595.77;107480;1270;25342;-92
2022/07/17 00:58:11;;;;;;;13.90;12.60;;;;;;;10.24;90.29;98592.89;107335;1271;22662;-92
2022/07/17 01:00:40;;;;;;;13.00;11.80;;;;;;;10.16;90.24;98592.92;107270;1271;25293;-93
2022/07/17 01:03:09;;;;;;;14.60;12.50;;;;;;;10.09;90.26;98591.35;106994;1271;22544;-88
2022/07/17 01:05:37;;;;;;;13.00;11.70;;;;;;;10.03;90.41;98593.54;107102;1271;23924;-92
2022/07/17 01:08:05;;;;;;;15.70;14.10;;;;;;;9.94;90.26;98597.09;106969;1271;22675;-93
2022/07/17 01:10:33;;;;;;;12.10;11.00;;;;;;;9.83;90.37;98597.67;107132;1271;22548;-92
2022/07/17 01:13:02;;;;;;;13.70;12.00;;;;;;;9.77;89.95;98595.39;107141;1271;24441;-93
2022/07/17 01:15:32;;;;;;;12.30;11.10;;;;;;;9.71;89.86;98593.27;108248;1271;22541;-93
2022/07/17 01:18:06;;;;;;;12.70;11.40;;;;;;;9.67;89.79;98591.08;108684;1270;23153;-91
2022/07/17 01:20:36;;;;;;;14.30;10.60;;;;;;;9.62;89.90;98594.64;108489;1271;22665;-90
2022/07/17 01:23:05;;;;;;;16.20;11.20;;;;;;;9.59;90.16;98593.52;107718;1271;22587;-92
2022/07/17 01:25:34;;;;;;;10.80;9.80;;;;;;;9.54;89.86;98595.92;107168;1271;22671;-91
2022/07/17 01:28:03;;;;;;;12.00;10.80;;;;;;;9.38;90.22;98591.29;107356;1271;22688;-92
2022/07/17 01:30:32;;;;;;;12.60;11.40;;;;;;;9.28;90.38;98595.34;107422;1268;24383;-92
2022/07/17 01:33:01;;;;;;;13.30;11.30;;;;;;;9.18;90.29;98589.77;107072;1271;24600;-92
2022/07/17 01:35:29;;;;;;;11.10;10.10;;;;;;;9.15;90.38;98601.61;107171;1271;22544;-90
2022/07/17 01:37:57;;;;;;;12.40;11.20;;;;;;;9.13;90.03;98598.23;107518;1271;22697;-92
2022/07/17 01:40:25;;;;;;;12.80;11.60;;;;;;;9.05;89.96;98602.45;107548;1271;22883;-92
2022/07/17 01:42:53;;;;;;;14.30;12.80;;;;;;;8.95;89.82;98598.84;107634;1271;22537;-92
2022/07/17 01:45:21;;;;;;;13.10;11.90;;;;;;;8.91;90.23;98599.40;107509;1271;22583;-92
2022/07/17 01:47:49;;;;;;;12.40;11.10;;;;;;;8.84;90.48;98603.21;107490;1271;23003;-91
2022/07/17 01:50:17;;;;;;;11.60;10.50;;;;;;;8.83;90.03;98604.23;107595;1271;22782;-92
2022/07/17 01:52:45;;;;;;;12.40;11.20;;;;;;;8.83;90.18;98600.65;107744;1271;22740;-92
2022/07/17 01:55:15;;;;;;;13.50;12.10;;;;;;;8.85;90.30;98600.46;107661;1271;262094;-92
2022/07/17 01:57:43;;;;;;;13.00;10.90;;;;;;;8.86;90.30;98601.97;107650;1271;22598;-92
2022/07/17 02:00:16;;;;;;;13.90;12.30;;;;;;;8.81;90.61;98598.38;107922;1271;22621;-92
2022/07/17 02:02:45;;;;;;;19.90;12.80;;;;;;;8.80;90.97;98600.54;108303;1271;22481;-92
2022/07/17 02:05:13;;;;;;;16.20;13.50;;;;;;;8.92;91.81;98595.95;108486;1271;25381;-90
2022/07/17 02:07:43;;;;;;;14.60;13.10;;;;;;;9.02;91.35;98598.36;108303;1271;22623;-93
2022/07/17 02:10:13;;;;;;;18.70;12.30;;;;;;;9.09;91.40;98596.74;108624;1271;23775;-92
2022/07/17 02:12:43;;;;;;;15.10;13.20;;;;;;;9.16;91.06;98595.42;108828;1271;22624;-93
2022/07/17 02:15:12;;;;;;;15.50;12.40;;;;;;;9.21;91.23;98596.98;109032;1271;22575;-95
2022/07/17 02:17:41;;;;;;;22.70;13.10;;;;;;;9.27;91.07;98600.56;108766;1271;22577;-90
2022/07/17 02:20:11;;;;;;;37.00;14.90;;;;;;;9.33;91.28;98599.05;108792;1271;22688;-91
2022/07/17 02:22:41;;;;;;;30.60;12.10;;;;;;;9.38;91.13;98600.33;108705;1271;23966;-91
2022/07/17 02:25:10;;;;;;;22.10;11.90;;;;;;;9.40;91.02;98598.38;109236;1271;22952;-92
2022/07/17 02:27:40;;;;;;;16.20;12.30;;;;;;;9.46;91.23;98598.41;109548;1271;22592;-84
2022/07/17 02:30:11;;;;;;;19.80;12.00;;;;;;;9.50;91.24;98599.05;109948;1270;22983;-87
2022/07/17 02:32:40;;;;;;;20.20;12.20;;;;;;;9.54;91.35;98601.67;109847;1270;22562;-90
2022/07/17 02:35:10;;;;;;;21.90;12.50;;;;;;;9.59;91.88;98603.75;109612;1271;25355;-92
2022/07/17 02:37:41;;;;;;;17.70;12.70;;;;;;;9.58;92.05;98604.45;109173;1271;22495;-92
2022/07/17 02:40:11;;;;;;;49.80;14.40;;;;;;;9.55;93.14;98602.80;108960;1271;22581;-92
2022/07/17 02:42:39;;;;;;;15.80;14.00;;;;;;;9.52;92.67;98604.20;109308;1271;22588;-91
2022/07/17 02:45:08;;;;;;;21.30;10.40;;;;;;;9.48;92.47;98609.66;109213;1271;22871;-94
2022/07/17 02:47:36;;;;;;;27.90;10.70;;;;;;;9.49;92.71;98606.53;109264;1271;23348;-93
2022/07/17 02:50:06;;;;;;;25.50;11.20;;;;;;;9.50;92.50;98604.81;109299;1271;22678;-94
2022/07/17 02:52:35;;;;;;;30.30;12.60;;;;;;;9.51;92.18;98602.42;109158;1271;25338;-92
2022/07/17 02:55:04;;;;;;;26.40;11.60;;;;;;;9.51;92.40;98602.82;109327;1271;22470;-90
2022/07/17 02:57:32;;;;;;;38.00;11.00;;;;;;;9.52;92.87;98602.44;109204;1270;23148;-94
2022/07/17 03:00:00;;;;;;;36.50;12.00;;;;;;;9.49;93.10;98598.73;109388;1271;22606;-89
2022/07/17 03:02:28;;;;;;;52.00;12.50;;;;;;;9.51;92.64;98599.69;109348;1271;22647;-93
2022/07/17 03:04:56;;;;;;;27.40;13.50;;;;;;;9.50;92.93;98600.13;109370;1271;22604;-90
2022/07/17 03:07:24;;;;;;;27.30;11.30;;;;;;;9.51;92.65;98601.64;109379;1271;23061;-93
2022/07/17 03:09:52;;;;;;;24.00;13.10;;;;;;;9.50;92.91;98605.02;109472;1271;22597;-94
2022/07/17 03:12:20;;;;;;;28.50;12.30;;;;;;;9.50;92.60;98608.04;109693;1270;23361;-90
2022/07/17 03:14:48;;;;;;;30.60;13.20;;;;;;;9.51;92.73;98605.50;109624;1270;22935;-94
2022/07/17 03:17:16;;;;;;;22.60;10.60;;;;;;;9.54;92.83;98613.52;109593;1271;22612;-90
2022/07/17 03:19:44;;;;;;;13.30;11.90;;;;;;;9.56;92.70;98617.27;109618;1271;22635;-92
2022/07/17 03:22:12;;;;;;;23.20;11.50;;;;;;;9.61;92.38;98621.94;109336;1271;22537;-95
2022/07/17 03:24:40;;;;;;;15.90;12.90;;;;;;;9.67;92.99;98622.40;109173;1271;22553;-91
2022/07/17 03:27:08;;;;;;;14.00;10.80;;;;;;;9.65;92.86;98623.06;109309;1271;23040;-92
2022/07/17 03:29:36;;;;;;;18.40;11.20;;;;;;;9.63;92.69;98622.57;109165;1271;22544;-94
2022/07/17 03:32:05;;;;;;;13.00;11.70;;;;;;;9.64;92.71;98623.39;108663;1271;24342;-92
2022/07/17 03:34:33;;;;;;;14.30;12.90;;;;;;;9.69;92.27;98629.18;108853;1271;22890;-90
2022/07/17 03:37:01;;;;;;;13.20;11.90;;;;;;;9.70;92.00;98636.11;109373;1271;22626;-91
2022/07/17 03:39:29;;;;;;;14.40;12.80;;;;;;;9.73;92.32;98632.75;109407;1271;22587;-88
2022/07/17 03:41:57;;;;;;;16.20;14.50;;;;;;;9.77;92.40;98634.79;109885;1271;22665;-86
2022/07/17 03:44:26;;;;;;;13.90;12.50;;;;;;;9.72;92.15;98642.56;109652;1271;22560;-92
2022/07/17 03:46:54;;;;;;;14.50;13.00;;;;;;;9.68;92.54;98642.46;109773;1271;22690;-93
2022/07/17 03:49:22;;;;;;;16.80;13.60;;;;;;;9.69;92.25;98643.97;109259;1271;23955;-93
2022/07/17 03:51:50;;;;;;;22.40;14.60;;;;;;;9.70;92.28;98649.83;108634;1271;22921;-94
2022/07/17 03:54:18;;;;;;;16.10;14.30;;;;;;;9.74;92.34;98649.27;108568;1271;23639;-93
2022/07/17 03:56:47;;;;;;;18.30;15.10;;;;;;;9.78;92.39;98649.54;108584;1271;22576;-92
2022/07/17 03:59:15;;;;;;;14.00;12.70;;;;;;;9.81;92.33;98648.72;108427;1271;23727;-93
2022/07/17 04:01:43;;;;;;;15.40;14.00;;;;;;;9.82;92.46;98653.45;108388;1271;22559;-92
2022/07/17 04:04:11;;;;;;;15.20;13.60;;;;;;;9.84;92.48;98653.65;108351;1271;22664;-91
2022/07/17 04:06:39;;;;;;;18.50;13.20;;;;;;;9.83;92.58;98648.84;108123;1271;22607;-92
2022/07/17 04:09:06;;;;;;;18.80;14.10;;;;;;;9.84;92.83;98653.34;107789;1271;24227;-93
2022/07/17 04:11:34;;;;;;;22.40;13.80;;;;;;;9.82;92.89;98651.56;108194;1271;22620;-93
2022/07/17 04:14:02;;;;;;;27.50;14.40;;;;;;;9.86;92.68;98655.22;108172;1271;22850;-93
2022/07/17 04:16:30;;;;;;;24.40;16.10;;;;;;;9.89;92.61;98652.35;108129;1271;22591;-92
2022/07/17 04:18:59;;;;;;;25.30;15.10;;;;;;;9.93;93.19;98656.48;107938;1271;24316;-92
2022/07/17 04:21:27;;;;;;;20.20;15.30;;;;;;;9.96;93.05;98659.27;107925;1271;22474;-94
2022/07/17 04:23:55;;;;;;;23.20;13.80;;;;;;;10.01;93.42;98661.67;107547;1271;22535;-93
2022/07/17 04:26:23;;;;;;;20.40;15.60;;;;;;;10.04;93.35;98668.51;108015;1271;24201;-90
2022/07/17 04:28:51;;;;;;;15.70;13.30;;;;;;;10.07;93.48;98673.59;107845;1271;26584;-92
2022/07/17 04:31:19;;;;;;;15.80;13.80;;;;;;;10.09;93.75;98671.48;107720;1271;22682;-93
2022/07/17 04:33:47;;;;;;;14.90;13.50;;;;;;;10.13;93.72;98672.23;107336;1271;22684;-92
2022/07/17 04:36:15;;;;;;;14.70;13.30;;;;;;;10.16;94.03;98675.23;107460;1271;22549;-91
2022/07/17 04:38:43;;;;;;;14.30;12.70;;;;;;;10.17;94.48;98683.52;107664;1271;22650;-91
2022/07/17 04:41:11;;;;;;;13.20;11.90;;;;;;;10.14;94.24;98687.23;107497;1271;22540;-92
2022/07/17 04:43:38;;;;;;;14.10;12.50;;;;;;;10.16;94.92;98685.94;107630;1271;22553;-93
2022/07/17 04:46:07;;;;;;;15.20;12.90;;;;;;;10.17;94.44;98687.39;107683;1271;25573;-94
2022/07/17 04:48:36;;;;;;;15.20;11.90;;;;;;;10.22;94.30;98691.20;107452;1271;22678;-91
2022/07/17 04:51:04;;;;;;;15.90;13.20;;;;;;;10.29;94.35;98691.13;107679;1271;22676;-91
2022/07/17 04:53:32;;;;;;;14.50;12.70;;;;;;;10.41;94.14;98690.49;109222;1271;22532;-88
2022/07/17 04:55:59;;;;;;;12.90;11.20;;;;;;;10.49;94.46;98697.17;108988;1270;22712;-91
2022/07/17 04:58:27;;;;;;;12.70;10.40;;;;;;;10.54;94.47;98700.16;108157;1271;22467;-92
2022/07/17 05:00:55;;;;;;;11.90;10.70;;;;;;;10.62;94.71;98702.75;107124;1271;25369;-92
2022/07/17 05:03:23;;;;;;;14.00;12.40;;;;;;;10.69;94.81;98705.79;107345;1271;25341;-90
2022/07/17 05:05:51;;;;;;;12.90;11.60;;;;;;;10.79;94.81;98703.03;107263;1271;26477;-92
2022/07/17 05:08:19;;;;;;;16.10;11.50;;;;;;;10.86;94.43;98704.16;107383;1271;22476;-89
2022/07/17 05:10:47;;;;;;;12.80;10.60;;;;;;;10.97;94.43;98705.11;107420;1271;24306;-92
2022/07/17 05:13:15;;;;;;;15.70;10.00;;;;;;;11.07;94.61;98697.91;107462;1271;25366;-91
2022/07/17 05:15:43;;;;;;;12.00;9.70;;;;;;;11.21;94.70;98701.20;107560;1270;26468;-90
2022/07/17 05:18:12;;;;;;;11.40;9.20;;;;;;;11.37;94.77;98704.46;107439;1271;22691;-92
2022/07/17 05:20:40;;;;;;;11.90;9.20;;;;;;;11.47;94.80;98703.07;107305;1271;22472;-89
2022/07/17 05:23:08;;;;;;;11.30;9.60;;;;;;;11.55;94.63;98698.98;107074;1271;26608;-92
2022/07/17 05:25:36;;;;;;;11.60;9.40;;;;;;;11.66;94.57;98698.45;107259;1271;22684;-93
2022/07/17 05:28:04;;;;;;;8.90;8.00;;;;;;;11.78;94.22;98699.52;107222;1271;25292;-91
2022/07/17 05:30:32;;;;;;;10.70;8.00;;;;;;;11.84;93.82;98697.73;106840;1271;23931;-91
2022/07/17 05:33:00;;;;;;;9.80;8.20;;;;;;;11.93;93.81;98697.48;106624;1271;22523;-90
2022/07/17 05:35:28;;;;;;;10.90;9.30;;;;;;;12.05;93.91;98698.54;106676;1271;22849;-91
2022/07/17 05:37:56;;;;;;;12.00;8.60;;;;;;;12.16;93.21;98706.71;106663;1271;25219;-91
2022/07/17 05:40:25;;;;;;;12.20;8.30;;;;;;;12.22;92.79;98709.88;106737;1271;22537;-91
2022/07/17 05:42:53;;;;;;;11.00;7.90;;;;;;;12.29;92.33;98707.31;106591;1271;25334;-90
2022/07/17 05:45:21;;;;;;;12.40;7.90;;;;;;;12.37;92.21;98712.50;106713;1271;24221;-90
2022/07/17 05:47:49;;;;;;;12.90;8.90;;;;;;;12.47;92.15;98712.27;106395;1271;22710;-90
2022/07/17 05:50:17;;;;;;;11.70;7.80;;;;;;;12.56;91.27;98716.48;106626;1271;22719;-92
2022/07/17 05:52:45;;;;;;;11.10;7.50;;;;;;;12.65;91.56;98718.14;106522;1271;22735;-90
2022/07/17 05:55:13;;;;;;;11.30;7.90;;;;;;;12.78;91.49;98725.02;106551;1271;24330;-89
2022/07/17 05:57:41;;;;;;;13.60;8.20;;;;;;;12.89;91.67;98721.45;106627;1271;22547;-91
2022/07/17 06:00:10;;;;;;;12.20;8.50;;;;;;;13.01;91.13;98725.28;106518;1271;22553;-89
2022/07/17 06:02:41;;;;;;;10.10;6.90;;;;;;;13.10;90.52;98727.80;106661;1271;22646;-92
2022/07/17 06:05:10;;;;;;;12.20;7.50;;;;;;;13.20;90.57;98732.35;108155;1271;22627;-86
2022/07/17 06:07:50;;;;;;;10.60;8.00;;;;;;;13.27;89.20;98734.43;109808;1271;22616;-91
2022/07/17 06:10:18;;;;;;;10.90;7.70;;;;;;;13.33;88.96;98737.19;107030;1271;22619;-90
2022/07/17 06:12:47;;;;;;;10.80;7.70;;;;;;;13.39;88.06;98732.66;106651;1271;22547;-92
2022/07/17 06:15:15;;;;;;;12.30;7.00;;;;;;;13.45;88.40;98732.90;106538;1272;22860;-90
2022/07/17 06:17:44;;;;;;;12.30;6.70;;;;;;;13.57;88.41;98735.06;106693;1271;22722;-91
2022/07/17 06:20:13;;;;;;;11.70;7.20;;;;;;;13.66;88.19;98732.46;106472;1271;22669;-90
2022/07/17 06:22:42;;;;;;;14.90;7.40;;;;;;;13.77;87.60;98734.77;106525;1271;22735;-90
2022/07/17 06:25:11;;;;;;;11.30;7.00;;;;;;;13.85;87.59;98734.61;106544;1271;22757;-89
2022/07/17 06:27:40;;;;;;;12.30;6.60;;;;;;;13.92;87.09;98736.16;106608;1271;22558;-90
2022/07/17 06:30:10;;;;;;;11.50;5.70;;;;;;;14.03;86.95;98735.18;106590;1271;23192;-88
2022/07/17 06:32:38;;;;;;;12.70;6.80;;;;;;;14.14;86.72;98740.06;106548;1271;22526;-91
2022/07/17 06:35:08;;;;;;;10.20;6.10;;;;;;;14.20;85.67;98733.17;106637;1271;24268;-91
2022/07/17 06:37:36;;;;;;;10.70;6.00;;;;;;;14.25;84.87;98738.73;106644;1271;24404;-91
2022/07/17 06:40:06;;;;;;;14.40;5.80;;;;;;;14.34;84.09;98742.49;106601;1271;25557;-90
2022/07/17 06:42:34;;;;;;;8.50;5.30;;;;;;;14.42;84.40;98743.14;106378;1271;22690;-90
2022/07/17 06:45:23;;;;;;;11.80;6.00;;;;;;;14.51;83.16;98744.22;106146;1277;24431;-90
2022/07/17 06:47:51;;;;;;;12.00;5.80;;;;;;;14.54;82.76;98745.35;106208;1278;22557;-90
2022/07/17 06:50:19;;;;;;;10.80;5.80;;;;;;;14.60;81.97;98750.12;106226;1277;22540;-90
2022/07/17 06:52:47;;;;;;;10.90;6.00;;;;;;;14.62;80.82;98749.79;106109;1278;23423;-91
2022/07/17 06:55:15;;;;;;;10.20;5.00;;;;;;;14.67;80.30;98749.52;106057;1277;22634;-89
2022/07/17 06:57:43;;;;;;;10.70;4.70;;;;;;;14.77;80.28;98752.39;106067;1277;25631;-86
2022/07/17 07:00:11;;;;;;;13.00;5.80;;;;;;;14.90;81.01;98745.16;106068;1277;24367;-89
2022/07/17 07:02:39;;;;;;;11.80;5.20;;;;;;;15.01;79.56;98747.20;106150;1271;22697;-90
2022/07/17 07:05:08;;;;;;;15.50;4.90;;;;;;;15.10;78.49;98748.88;106540;1271;22541;-91
2022/07/17 07:07:36;;;;;;;13.10;5.40;;;;;;;15.16;79.08;98745.54;106524;1271;25451;-88
2022/07/17 07:10:05;;;;;;;11.70;4.80;;;;;;;15.30;78.96;98748.51;106533;1271;22535;-89
2022/07/17 07:12:33;;;;;;;11.20;4.80;;;;;;;15.44;79.67;98746.55;106316;1271;22546;-90
2022/07/17 07:15:02;;;;;;;9.70;4.60;;;;;;;15.58;79.21;98742.55;106424;1271;24265;-91
2022/07/17 07:17:35;;;;;;;;;;;;;;;15.75;79.03;98749.88;106442;1271;22523;-90
2022/07/17 07:20:04;;;;;;;9.90;4.10;;;;;;;15.84;77.57;98750.17;106458;1271;22710;-89
2022/07/17 07:22:32;;;;;;;8.50;3.90;;;;;;;15.86;75.92;98755.17;106510;1271;24262;-89
2022/07/17 07:25:01;;;;;;;8.80;3.40;;;;;;;15.91;74.80;98749.05;106504;1271;24933;-88
2022/07/17 07:27:29;;;;;;;7.70;3.70;;;;;;;16.01;74.50;98751.63;106353;1271;23191;-89
2022/07/17 07:29:57;;;;;;;8.60;3.80;;;;;;;16.15;75.20;98749.98;106430;1271;23451;-89
2022/07/17 07:32:26;;;;;;;6.50;3.30;;;;;;;16.34;76.01;98752.45;106507;1271;24274;-89
2022/07/17 07:34:54;;;;;;;8.80;3.60;;;;;;;16.50;75.49;98749.92;106504;1271;22531;-89
2022/07/17 07:37:22;;;;;;;10.50;3.70;;;;;;;16.65;74.03;98749.22;106410;1271;25473;-89
2022/07/17 07:39:50;;;;;;;8.10;3.10;;;;;;;16.79;73.60;98749.58;106307;1271;22698;-88
2022/07/17 07:42:18;;;;;;;8.20;3.60;;;;;;;16.93;71.67;98749.98;106386;1271;22671;-86
2022/07/17 07:44:46;;;;;;;5.70;2.50;;;;;;;16.91;70.23;98751.49;106406;1271;22782;-88
2022/07/17 07:47:14;;;;;;;8.70;3.10;;;;;;;16.88;68.65;98753.02;106300;1271;22529;-88
2022/07/17 07:49:42;;;;;;;7.50;2.60;;;;;;;16.79;69.09;98755.98;106405;1271;25366;-89
2022/07/17 07:52:10;;;;;;;7.10;2.40;;;;;;;16.82;67.76;98761.96;106434;1271;22547;-89
2022/07/17 07:54:39;;;;;;;8.20;2.80;;;;;;;16.95;68.10;98767.55;106594;1271;23238;-88
2022/07/17 07:57:07;;;;;;;4.60;2.40;;;;;;;17.08;65.48;98774.23;106404;1271;23182;-88
2022/07/17 07:59:36;;;;;;;6.80;2.60;;;;;;;17.11;65.22;98771.41;106507;1271;23515;-86
2022/07/17 08:02:04;;;;;;;5.30;2.30;;;;;;;17.20;65.27;98775.13;106593;1271;25483;-88
2022/07/17 08:04:32;;;;;;;4.70;2.30;;;;;;;17.29;63.64;98776.89;106406;1271;22518;-87
2022/07/17 08:07:00;;;;;;;6.80;2.70;;;;;;;17.39;62.91;98777.52;106460;1271;22546;-86
2022/07/17 08:09:28;;;;;;;7.50;2.40;;;;;;;17.49;62.64;98773.41;106505;1271;22726;-87
2022/07/17 08:11:56;;;;;;;5.10;2.40;;;;;;;17.59;62.21;98778.05;106461;1271;22691;-87
2022/07/17 08:14:24;;;;;;;4.70;2.00;;;;;;;17.77;62.14;98774.46;106517;1271;24398;-86
2022/07/17 08:16:52;;;;;;;7.50;2.90;;;;;;;17.91;60.48;98772.98;106523;1271;22672;-88
2022/07/17 08:19:21;;;;;;;5.30;2.30;;;;;;;18.01;61.42;98783.67;106529;1271;25309;-88
2022/07/17 08:21:49;;;;;;;5.70;2.10;;;;;;;17.90;60.81;98782.16;106514;1271;22550;-87
2022/07/17 08:24:17;;;;;;;7.70;2.50;;;;;;;17.81;61.06;98783.13;106324;1271;25363;-88
2022/07/17 08:26:44;;;;;;;9.10;2.50;;;;;;;17.79;61.04;98775.50;106465;1271;22529;-89
2022/07/17 08:29:12;;;;;;;5.30;2.20;;;;;;;17.74;61.39;98779.33;106455;1271;22576;-87
2022/07/17 08:31:40;;;;;;;7.40;2.10;;;;;;;17.71;59.88;98787.35;106791;1271;22664;-88
2022/07/17 08:34:09;;;;;;;5.00;2.20;;;;;;;17.82;61.18;98781.63;108106;1271;22675;-88
2022/07/17 08:36:37;;;;;;;9.40;2.30;;;;;;;18.06;57.92;98787.80;106457;1271;22595;-88
2022/07/17 08:39:06;;;;;;;5.80;2.00;;;;;;;18.12;57.01;98785.40;106419;1271;22606;-89
2022/07/17 08:41:38;;;;;;;7.30;2.80;;;;;;;18.09;58.18;98790.71;106207;1271;22544;-88
2022/07/17 08:44:08;;;;;;;5.50;2.30;;;;;;;18.11;56.94;98794.79;106486;1271;23211;-89
2022/07/17 08:46:38;;;;;;;4.70;2.20;;;;;;;18.03;56.91;98783.77;106512;1271;25342;-87
2022/07/17 08:49:07;;;;;;;6.90;2.30;;;;;;;18.11;56.81;98787.30;106457;1271;22613;-87
2022/07/17 08:51:35;;;;;;;3.60;2.00;;;;;;;18.00;57.21;98791.20;106499;1271;22770;-87
2022/07/17 08:54:11;;;;;;;8.80;2.60;;;;;;;18.02;56.82;98799.85;106518;1271;24816;-86
2022/07/17 08:56:39;;;;;;;4.00;1.90;;;;;;;18.11;55.79;98796.48;106283;1271;23939;-88
2022/07/17 08:59:07;;;;;;;12.70;2.00;;;;;;;17.95;54.05;98794.96;106395;1271;26459;-88
2022/07/17 09:01:35;;;;;;;6.30;2.30;;;;;;;17.80;54.55;98795.85;106372;1271;25533;-86
2022/07/17 09:04:09;;;;;;;4.40;1.80;;;;;;;17.87;55.14;98795.88;106226;1271;22698;-86
2022/07/17 09:06:37;;;;;;;4.90;2.20;;;;;;;18.01;54.64;98791.70;106524;1269;22642;-88
2022/07/17 09:09:13;;;;;;;5.90;2.50;;;;;;;18.20;54.18;98792.95;106419;1271;24434;-87
2022/07/17 09:11:51;;;;;;;6.30;2.20;;;;;;;18.43;54.33;98802.23;106396;1271;24361;-89
2022/07/17 09:14:21;;;;;;;3.90;1.90;;;;;;;18.42;54.32;98804.05;106360;1271;22543;-88
2022/07/17 09:16:49;;;;;;;5.30;2.00;;;;;;;18.23;52.91;98809.22;106427;1271;22548;-88
2022/07/17 09:19:32;;;;;;;6.70;1.90;;;;;;;18.16;53.78;98804.70;106452;1271;25404;-89
2022/07/17 09:22:13;;;;;;;4.90;1.90;;;;;;;18.39;54.65;98796.77;106296;1271;25455;-87
2022/07/17 09:24:50;;;;;;;2.90;1.70;;;;;;;18.78;54.52;98791.84;106500;1271;22697;-88
2022/07/17 09:27:24;;;;;;;7.00;2.20;;;;;;;18.98;51.69;98799.10;106308;1271;24352;-87
2022/07/17 09:30:06;;;;;;;5.10;1.80;;;;;;;18.83;50.97;98804.16;106470;1271;22665;-86
2022/07/17 09:32:38;;;;;;;4.50;2.20;;;;;;;18.86;51.02;98800.54;106473;1271;24355;-87
2022/07/17 09:35:09;;;;;;;4.20;1.60;;;;;;;18.97;50.66;98812.09;106536;1271;22590;-88
2022/07/17 09:37:38;;;;;;;4.20;2.20;;;;;;;18.96;50.36;98816.91;106397;1271;22558;-88
2022/07/17 09:43:01;;;;;;;;;;;;;;;19.19;50.99;98811.02;106536;1270;22554;-85
2022/07/17 09:45:35;;;;;;;5.80;2.00;;;;;;;19.37;50.82;98807.97;107282;1271;22479;-87
2022/07/17 09:48:03;;;;;;;;;;;;;;;19.47;48.13;98805.75;107243;1271;22671;-88
2022/07/17 09:50:32;;;;;;;4.60;2.10;;;;;;;19.49;49.17;98804.20;106236;1271;24249;-87
2022/07/17 09:53:02;;;;;;;4.70;2.20;;;;;;;19.61;49.10;98811.01;106510;1271;22595;-87
2022/07/17 09:55:37;;;;;;;3.90;2.00;;;;;;;19.54;46.97;98818.60;106324;1271;22538;-88
2022/07/17 09:58:21;;;;;;;2.70;1.50;;;;;;;19.20;46.42;98824.36;106481;1270;23193;-88
2022/07/17 10:00:50;;;;;;;4.00;2.20;;;;;;;18.87;46.86;98820.83;106555;1270;22609;-88
2022/07/17 10:03:19;;;;;;;4.30;2.10;;;;;;;18.59;47.09;98816.43;106455;1271;22872;-89
2022/07/17 10:05:47;;;;;;;5.00;1.90;;;;;;;18.55;48.25;98813.69;106473;1271;24544;-89
2022/07/17 10:08:16;;;;;;;3.30;1.80;;;;;;;18.71;48.84;98805.94;106576;1271;22563;-88
2022/07/17 10:10:44;;;;;;;4.30;1.80;;;;;;;19.02;48.21;98804.57;106361;1271;22609;-87
2022/07/17 10:13:15;;;;;;;5.70;2.00;;;;;;;19.30;47.86;98798.36;106569;1271;22613;-89
2022/07/17 10:15:44;;;;;;;3.50;1.70;;;;;;;19.59;45.70;98807.27;106589;1271;23920;-89
2022/07/17 10:18:12;;;;;;;4.80;1.80;;;;;;;19.73;45.55;98802.11;106422;1271;22618;-89
2022/07/17 10:20:40;;;;;;;4.00;1.60;;;;;;;19.85;45.69;98801.73;106468;1271;22577;-89
2022/07/17 10:23:13;;;;;;;5.60;2.20;;;;;;;19.98;45.08;98800.77;106464;1271;22543;-88
2022/07/17 10:25:42;;;;;;;2.40;1.50;;;;;;;20.06;45.82;98802.04;106470;1270;22661;-89
2022/07/17 10:28:12;;;;;;;3.30;1.60;;;;;;;19.87;44.32;98816.79;106457;1271;22587;-88
2022/07/17 10:30:43;;;;;;;3.80;2.00;;;;;;;19.54;44.71;98816.89;106411;1271;22676;-85
2022/07/17 10:33:16;;;;;;;3.20;1.60;;;;;;;19.41;44.43;98816.33;106469;1271;25494;-87
2022/07/17 10:35:49;;;;;;;4.00;1.70;;;;;;;19.47;44.19;98818.33;106476;1271;24363;-89
2022/07/17 10:38:17;;;;;;;4.80;1.80;;;;;;;19.64;43.67;98822.77;106507;1271;24808;-89
2022/07/17 10:40:45;;;;;;;3.10;1.70;;;;;;;19.81;42.80;98815.02;106451;1271;22763;-88
2022/07/17 10:43:13;;;;;;;3.60;1.60;;;;;;;19.90;42.94;98812.15;106508;1270;23186;-87
2022/07/17 10:45:45;;;;;;;3.90;1.80;;;;;;;20.05;43.27;98815.31;106263;1271;24199;-88
2022/07/17 10:48:16;;;;;;;3.30;1.70;;;;;;;20.18;43.15;98815.21;106513;1271;25347;-86
2022/07/17 10:50:55;;;;;;;6.30;1.90;;;;;;;20.32;43.11;98816.70;106530;1271;26618;-88
2022/07/17 10:53:31;;;;;;;5.30;1.80;;;;;;;20.39;42.38;98825.86;106344;1271;25354;-89
2022/07/17 10:56:03;;;;;;;4.20;1.30;;;;;;;20.37;41.42;98818.51;106485;1271;22725;-89
2022/07/17 10:58:33;;;;;;;3.30;1.90;;;;;;;20.37;40.32;98817.54;106668;1271;22694;-87
2022/07/17 11:01:21;;;;;;;4.00;2.10;;;;;;;20.47;40.35;98822.56;106611;1271;22654;-90
2022/07/17 11:03:55;;;;;;;5.20;1.80;;;;;;;20.64;40.42;98816.83;106495;1271;22872;-88
2022/07/17 11:06:32;;;;;;;3.80;2.10;;;;;;;20.74;40.49;98812.75;106360;1271;24396;-87
2022/07/17 11:09:05;;;;;;;3.50;1.90;;;;;;;20.56;40.38;98814.41;106531;1271;25365;-86
2022/07/17 11:11:50;;;;;;;3.70;1.80;;;;;;;20.30;40.39;98819.75;106557;1271;22534;-85
2022/07/17 11:14:21;;;;;;;4.70;2.10;;;;;;;20.27;40.17;98814.25;106525;1271;23190;-87
2022/07/17 11:17:01;;;;;;;5.10;2.20;;;;;;;20.46;39.88;98813.87;106643;1271;22545;-87
2022/07/17 11:19:30;;;;;;;5.90;1.70;;;;;;;20.74;39.94;98809.93;106540;1271;22606;-87
2022/07/17 11:22:04;;;;;;;3.10;1.70;;;;;;;20.72;40.17;98811.58;106591;1271;24263;-86
2022/07/17 11:24:35;;;;;;;7.50;2.00;;;;;;;20.54;39.85;98808.04;106384;1271;22544;-88
2022/07/17 11:27:04;;;;;;;6.50;2.40;;;;;;;20.47;40.40;98809.59;106532;1271;22978;-89
2022/07/17 11:30:32;;;;;;;5.20;2.00;;;;;;;20.65;40.66;98800.80;106358;1271;22559;-87
2022/07/17 11:33:54;;;;;;;5.60;2.20;;;;;;;20.81;40.03;98799.52;106291;1274;22655;-88